Portland, ME

6:16 PM EDT on May 25, 2017 (GMT -0400)
Munjoy Hill | | Change Station
Active Advisory: Coastal Flood Advisory Active Notice: Coastal Flood Advisory

Elev 151 ft 43.67 °N, 70.25 °W | Updated 1 second ago

Light Rain
Light Rain Mist
50.7 °F
Feels Like 50.7 °F
N
4.0
Wind Variable Wind from SE

Today
High -- | Low -- °F
--% Chance of Precip.
Yesterday
High -- | Low -- °F
Precip. -- in
Pressure 29.84 in
Visibility 1.5 miles
Clouds Mostly Cloudy 1400 ft
Overcast 2100 ft
Dew Point 49 °F
Humidity 93%
Rainfall 0.00 in
Snow Depth Not available.
5:06 AM 8:09 PM
New Moon, 0% visible
SPECI KPWM 252212Z 08016G27KT 1 1/2SM -RA BR BKN014 OVC021 10/08 A2984 RMK AO2 PK WND 07032/2152 P0001 T01000083
Pressure 29.84 in
Visibility 1.5 miles
Clouds Mostly Cloudy 1400 ft
Overcast 2100 ft
Dew Point 49 °F
Humidity 93%
Rainfall 0.00 in
Snow Depth Not available.
5:06 AM 8:09 PM
New Moon, 0% visible
SPECI KPWM 252212Z 08016G27KT 1 1/2SM -RA BR BKN014 OVC021 10/08 A2984 RMK AO2 PK WND 07032/2152 P0001 T01000083

Get Your Daily Forecast Email!

Thanks for signing up!

Be on the lookout for a verification email in your inbox.

You'll start receiving severe weather alerts in your inbox..

×

10-Day Weather Forecast

Almanac

Astronomy

May. 25, 2017 Rise Set
Actual Time
Civil Twilight
Nautical Twilight
Astronomical Twilight
Moon
Length of Visible Light
Length of Day
Tomorrow will be .
, % of the Moon is Illuminated

Today's Extremes

State Highs State Lows

Community

WunderPhotos

Category 6

Welcome to Category 6. This is the collective home for Weather Underground's featured writeups by Dr. Jeff Masters (right), Bob Henson (left), Chris Burt, and other regular contributors.

Nearby

Air Quality

  Air Quality AQ Index Pollutant
Not available.

Snow Depth

Station Depth Elevation

Earthquake Activity

City Distance Mag. Time & Date
Minimum magnitude displayed is 2.5.

Coastal Water Temperatures

Place Temperature

Stations

Nearby Weather Stations

Station Location Temp. Windchill Dew Point Humidity Wind Precip. Elev Updated Type
                   

Watches & Warnings

Coastal Flood Advisory
Issued: 6:06 PM EDT May. 25, 2017 – National Weather Service

... Coastal flood advisory remains in effect from 10 PM this
evening to 1 am EDT Friday...

* location... midcoast and southwest coast of Maine and New
Hampshire.

* Timing... between 11 PM Thursday night and 1 am Friday morning.

* Impacts... splash-over and minor coastal flooding. Moderate
coastal flooding is possible in Hampton.

Precautionary/preparedness actions...

A coastal flood advisory indicates that onshore winds and tides
will combine to generate flooding of low areas along the shore.